createdAt,value
2023-05-11T00:00:39.583Z,34.79
2023-05-11T00:03:06.695Z,34.80
2023-05-11T00:05:33.807Z,34.80
2023-05-11T00:08:01.005Z,34.72
2023-05-11T00:10:28.935Z,34.56
2023-05-11T00:12:56.513Z,34.42
2023-05-11T00:15:23.460Z,34.41
2023-05-11T00:17:50.297Z,34.47
2023-05-11T00:20:17.604Z,34.42
2023-05-11T00:22:45.031Z,34.41
2023-05-11T00:25:12.121Z,34.41
2023-05-11T00:27:39.618Z,34.58
2023-05-11T00:30:07.631Z,34.60
2023-05-11T00:32:34.543Z,34.72
2023-05-11T00:35:01.458Z,34.74
2023-05-11T00:37:28.437Z,34.99
2023-05-11T00:39:55.353Z,35.33
2023-05-11T00:42:22.239Z,35.17
2023-05-11T00:44:49.069Z,34.91
2023-05-11T00:47:16.215Z,34.78
2023-05-11T00:49:43.254Z,34.90
2023-05-11T00:52:10.110Z,35.27
2023-05-11T00:54:37.640Z,35.42
2023-05-11T00:57:04.717Z,35.49
2023-05-11T00:59:31.811Z,35.30
2023-05-11T01:01:58.883Z,35.36
2023-05-11T01:04:25.855Z,35.57
2023-05-11T01:07:13.088Z,35.60
2023-05-11T01:09:47.401Z,35.60
2023-05-11T01:12:35.657Z,35.49
2023-05-11T01:15:15.141Z,35.19
2023-05-11T01:17:52.117Z,35.07
2023-05-11T01:20:22.724Z,35.31
2023-05-11T01:23:08.191Z,35.22
2023-05-11T01:25:56.864Z,35.01
2023-05-11T01:28:56.304Z,35.05
2023-05-11T01:31:23.841Z,35.11
2023-05-11T01:33:55.692Z,35.14
2023-05-11T01:36:25.152Z,35.12
2023-05-11T01:38:52.039Z,35.08
2023-05-11T01:41:20.110Z,35.11
2023-05-11T01:43:53.321Z,35.17
2023-05-11T01:46:20.716Z,35.27
2023-05-11T01:48:49.329Z,35.16
2023-05-11T01:51:16.219Z,35.22
2023-05-11T01:53:43.009Z,35.41
2023-05-11T01:56:11.564Z,35.51
2023-05-11T01:58:39.334Z,35.50
2023-05-11T02:01:06.886Z,35.55
2023-05-11T02:03:35.726Z,35.54
2023-05-11T02:06:06.575Z,35.71
2023-05-11T02:08:33.799Z,36.01
2023-05-11T02:11:01.200Z,36.21
2023-05-11T02:13:28.737Z,36.25
2023-05-11T02:15:57.145Z,35.87
2023-05-11T02:18:24.124Z,35.81
2023-05-11T02:20:56.842Z,35.73
2023-05-11T02:23:25.057Z,35.60
2023-05-11T02:25:55.035Z,35.57
2023-05-11T02:28:22.184Z,35.39
2023-05-11T02:30:52.233Z,35.25
2023-05-11T02:33:33.307Z,35.27
2023-05-11T02:36:00.222Z,35.55
2023-05-11T02:38:38.338Z,35.53
2023-05-11T02:41:09.831Z,35.27
2023-05-11T02:43:37.197Z,35.34
2023-05-11T02:46:06.586Z,35.38
2023-05-11T02:48:39.004Z,35.27
2023-05-11T02:51:08.542Z,35.05
2023-05-11T02:53:38.683Z,34.68
2023-05-11T02:56:06.265Z,34.21
2023-05-11T02:58:33.283Z,33.65
2023-05-11T03:01:13.166Z,33.31
2023-05-11T03:03:40.469Z,32.97
2023-05-11T03:06:07.442Z,32.51
2023-05-11T03:08:34.477Z,32.27
2023-05-11T03:11:02.759Z,32.20
2023-05-11T03:13:29.584Z,32.33
2023-05-11T03:15:57.192Z,32.40
2023-05-11T03:18:24.423Z,32.60
2023-05-11T03:20:51.425Z,32.84
2023-05-11T03:23:18.813Z,33.05
2023-05-11T03:25:45.762Z,33.09
2023-05-11T03:28:12.980Z,33.18
2023-05-11T03:30:40.793Z,33.22
2023-05-11T03:33:07.646Z,33.51
2023-05-11T03:35:35.198Z,33.54
2023-05-11T03:38:03.152Z,33.54
2023-05-11T03:40:31.613Z,33.36
2023-05-11T03:43:00.423Z,33.41
2023-05-11T03:45:28.588Z,33.37
2023-05-11T03:47:55.654Z,33.40
2023-05-11T03:50:22.600Z,33.40
2023-05-11T03:52:49.502Z,33.07
2023-05-11T03:55:16.541Z,32.99
2023-05-11T03:57:43.515Z,32.89
2023-05-11T04:00:11.860Z,32.97
2023-05-11T04:02:44.895Z,32.99
2023-05-11T04:05:12.965Z,33.09
2023-05-11T04:07:41.315Z,33.04
2023-05-11T04:10:08.924Z,32.65
2023-05-11T04:12:35.860Z,31.87
2023-05-11T04:15:04.765Z,30.63
2023-05-11T04:17:31.841Z,29.12
2023-05-11T04:19:58.736Z,27.92
2023-05-11T04:22:25.815Z,26.41
2023-05-11T04:24:52.619Z,25.24
2023-05-11T04:27:19.592Z,24.11
2023-05-11T04:29:46.407Z,22.79
2023-05-11T04:32:13.303Z,21.99
2023-05-11T04:34:40.146Z,21.55
2023-05-11T04:37:08.147Z,21.58
2023-05-11T04:39:36.680Z,21.62
2023-05-11T04:42:04.143Z,21.81
2023-05-11T04:44:31.658Z,22.17
2023-05-11T04:46:58.549Z,22.49
2023-05-11T04:49:25.434Z,22.70
2023-05-11T04:51:52.348Z,22.79
2023-05-11T04:54:19.255Z,22.67
2023-05-11T04:56:46.662Z,21.95
2023-05-11T04:59:14.282Z,21.47
2023-05-11T05:01:41.230Z,21.10
2023-05-11T05:04:08.857Z,20.40
2023-05-11T05:06:35.825Z,19.76
2023-05-11T05:09:03.377Z,18.75
2023-05-11T05:11:30.465Z,17.95
2023-05-11T05:13:57.360Z,17.53
2023-05-11T05:16:24.199Z,17.14
2023-05-11T05:18:51.373Z,17.24
2023-05-11T05:21:18.412Z,17.24
2023-05-11T05:23:45.402Z,16.92
2023-05-11T05:26:12.214Z,16.63
2023-05-11T05:28:40.031Z,16.56
2023-05-11T05:31:06.908Z,16.22
2023-05-11T05:33:33.940Z,16.13
2023-05-11T05:36:00.850Z,16.48
2023-05-11T05:38:27.660Z,16.48
2023-05-11T05:40:56.195Z,16.54
2023-05-11T05:43:23.001Z,17.00
2023-05-11T05:45:50.137Z,17.48
2023-05-11T05:48:17.032Z,17.49
2023-05-11T05:50:43.840Z,17.51
2023-05-11T05:53:10.922Z,17.06
2023-05-11T05:55:38.070Z,16.95
2023-05-11T05:58:05.838Z,17.00
2023-05-11T06:00:32.759Z,16.57
2023-05-11T06:03:02.933Z,15.90
2023-05-11T06:05:29.918Z,15.53
2023-05-11T06:08:09.228Z,15.03
2023-05-11T06:10:38.350Z,13.83
2023-05-11T06:13:05.501Z,13.05
2023-05-11T06:15:32.409Z,13.69
2023-05-11T06:18:03.292Z,13.41
2023-05-11T06:20:31.819Z,12.64
2023-05-11T06:22:58.837Z,11.89
2023-05-11T06:25:27.745Z,11.08
2023-05-11T06:27:54.657Z,10.70
2023-05-11T06:30:24.816Z,10.26
2023-05-11T06:32:52.200Z,9.98
2023-05-11T06:35:19.826Z,10.13
2023-05-11T06:37:47.038Z,10.16
2023-05-11T06:40:16.544Z,10.21
2023-05-11T06:42:43.808Z,10.32
2023-05-11T06:45:11.461Z,10.45
2023-05-11T06:47:41.777Z,10.66
2023-05-11T06:50:08.776Z,10.74
2023-05-11T06:52:37.410Z,10.72
2023-05-11T06:55:05.058Z,10.88
2023-05-11T06:57:31.866Z,10.54
2023-05-11T06:59:58.652Z,10.32
2023-05-11T07:02:25.620Z,10.21
2023-05-11T07:04:52.937Z,10.02
2023-05-11T07:07:20.000Z,9.81
2023-05-11T07:09:46.930Z,9.92
2023-05-11T07:12:13.870Z,9.81
2023-05-11T07:14:40.845Z,9.65
2023-05-11T07:17:08.043Z,9.81
2023-05-11T07:19:34.986Z,9.82
2023-05-11T07:22:02.326Z,9.77
2023-05-11T07:24:29.220Z,9.95
2023-05-11T07:26:57.522Z,9.99
2023-05-11T07:29:24.481Z,10.04
2023-05-11T07:31:51.826Z,10.33
2023-05-11T07:34:18.904Z,10.60
2023-05-11T07:36:46.711Z,10.32
2023-05-11T07:39:16.266Z,10.09
2023-05-11T07:41:43.134Z,10.02
2023-05-11T07:44:10.359Z,10.32
2023-05-11T07:46:37.274Z,10.39
2023-05-11T07:49:15.668Z,10.73
2023-05-11T07:51:47.498Z,10.60
2023-05-11T07:54:14.507Z,10.96
2023-05-11T07:56:42.233Z,11.72
2023-05-11T07:59:09.384Z,12.10
2023-05-11T08:01:36.975Z,11.97
2023-05-11T08:04:03.871Z,11.43
2023-05-11T08:06:31.387Z,11.72
2023-05-11T08:08:58.458Z,12.23
2023-05-11T08:11:26.463Z,12.48
2023-05-11T08:13:53.361Z,12.64
2023-05-11T08:16:20.339Z,12.57
2023-05-11T08:18:47.951Z,12.30
2023-05-11T08:21:14.900Z,12.31
2023-05-11T08:23:43.909Z,11.95
2023-05-11T08:26:12.072Z,11.82
2023-05-11T08:28:38.917Z,11.86
2023-05-11T08:31:06.573Z,11.67
2023-05-11T08:33:38.419Z,12.07
2023-05-11T08:36:07.229Z,11.96
2023-05-11T08:38:35.526Z,12.08
2023-05-11T08:41:03.168Z,11.87
2023-05-11T08:43:29.942Z,12.15
2023-05-11T08:45:58.185Z,12.04
2023-05-11T08:48:25.101Z,12.16
2023-05-11T08:50:52.102Z,12.22
2023-05-11T08:53:18.922Z,11.87
2023-05-11T08:55:45.711Z,12.08
2023-05-11T08:58:15.158Z,11.72
2023-05-11T09:00:44.394Z,11.80
2023-05-11T09:03:11.240Z,11.51
2023-05-11T09:05:38.155Z,11.46
2023-05-11T09:08:05.222Z,11.83
2023-05-11T09:10:32.732Z,11.80
2023-05-11T09:12:59.671Z,11.64
2023-05-11T09:15:26.925Z,11.22
2023-05-11T09:17:53.772Z,11.11
2023-05-11T09:20:28.536Z,11.08
2023-05-11T09:22:56.344Z,11.25
2023-05-11T09:25:23.676Z,11.13
2023-05-11T09:27:50.698Z,11.25
2023-05-11T09:30:22.405Z,11.31
2023-05-11T09:32:53.863Z,11.24
2023-05-11T09:35:22.503Z,11.26
2023-05-11T09:38:09.872Z,11.22
2023-05-11T09:40:38.172Z,11.45
2023-05-11T09:43:24.584Z,11.62
2023-05-11T09:45:52.603Z,11.41
2023-05-11T09:48:19.608Z,11.38
2023-05-11T09:50:50.518Z,11.57
2023-05-11T09:53:17.425Z,11.55
2023-05-11T09:55:56.975Z,11.89
2023-05-11T09:58:24.077Z,11.82
2023-05-11T10:00:52.026Z,11.78
2023-05-11T10:03:19.037Z,11.61
2023-05-11T10:06:00.768Z,11.75
2023-05-11T10:08:32.182Z,12.50
2023-05-11T10:10:59.047Z,12.06
2023-05-11T10:13:27.098Z,12.17
2023-05-11T10:15:54.754Z,12.17
2023-05-11T10:18:21.663Z,12.44
2023-05-11T10:20:48.731Z,12.32
2023-05-11T10:23:16.628Z,12.11
2023-05-11T10:25:43.581Z,12.27
2023-05-11T10:28:10.962Z,12.55
2023-05-11T10:30:38.192Z,12.64
2023-05-11T10:35:14.715Z,13.32
2023-05-11T10:37:42.973Z,12.41
2023-05-11T10:40:10.783Z,12.08
2023-05-11T10:42:40.593Z,12.20
2023-05-11T10:45:17.377Z,12.12
2023-05-11T10:47:56.530Z,12.13
2023-05-11T10:50:34.232Z,11.59
2023-05-11T10:53:19.611Z,11.57
2023-05-11T10:56:10.384Z,11.65
2023-05-11T10:58:48.516Z,11.76
2023-05-11T11:01:21.578Z,11.72
2023-05-11T11:04:10.986Z,11.44
2023-05-11T11:06:39.339Z,11.68
2023-05-11T11:09:15.626Z,11.34
2023-05-11T11:11:47.506Z,11.34
2023-05-11T11:14:15.398Z,11.53
2023-05-11T11:17:09.692Z,11.72
2023-05-11T11:19:37.753Z,11.68
2023-05-11T11:22:05.212Z,11.62
2023-05-11T11:24:35.072Z,11.48
2023-05-11T11:27:01.968Z,11.27
2023-05-11T11:29:30.331Z,11.48
2023-05-11T11:32:19.882Z,11.47
2023-05-11T11:34:47.390Z,11.45
2023-05-11T11:37:15.300Z,11.41
2023-05-11T11:39:42.110Z,11.18
2023-05-11T11:42:09.950Z,11.07
2023-05-11T11:44:40.685Z,11.19
2023-05-11T11:47:20.822Z,10.88
2023-05-11T11:49:52.404Z,11.15
2023-05-11T11:52:31.748Z,11.27
2023-05-11T11:55:02.595Z,11.20
2023-05-11T11:57:35.816Z,11.04
2023-05-11T12:00:07.296Z,11.00
2023-05-11T12:02:44.288Z,11.21
2023-05-11T12:05:18.784Z,11.56
2023-05-11T12:07:54.492Z,11.18
2023-05-11T12:10:22.498Z,11.30
2023-05-11T12:12:51.015Z,11.35
2023-05-11T12:15:25.251Z,11.29
2023-05-11T12:17:52.271Z,11.37
2023-05-11T12:20:19.804Z,11.01
2023-05-11T12:22:49.251Z,10.97
2023-05-11T12:25:18.347Z,10.82
2023-05-11T12:27:52.777Z,10.96
2023-05-11T12:30:24.131Z,10.89
2023-05-11T12:32:56.630Z,10.60
2023-05-11T12:35:30.922Z,10.69
2023-05-11T12:37:59.711Z,10.61
2023-05-11T12:40:26.768Z,10.56
2023-05-11T12:42:54.921Z,10.74
2023-05-11T12:45:23.534Z,10.68
2023-05-11T12:47:51.675Z,10.81
2023-05-11T12:50:18.925Z,10.81
2023-05-11T12:52:45.845Z,11.02
2023-05-11T12:55:12.753Z,11.30
2023-05-11T12:57:40.235Z,11.12
2023-05-11T13:00:14.864Z,10.78
2023-05-11T13:02:50.037Z,11.06
2023-05-11T13:05:19.453Z,11.21
2023-05-11T13:07:46.771Z,11.33
2023-05-11T13:10:14.373Z,11.41
2023-05-11T13:12:51.862Z,11.40
2023-05-11T13:15:19.850Z,11.50
2023-05-11T13:17:47.869Z,11.58
2023-05-11T13:20:28.702Z,11.48
2023-05-11T13:23:10.200Z,11.38
2023-05-11T13:25:46.247Z,11.19
2023-05-11T13:28:17.049Z,11.06
2023-05-11T13:30:44.165Z,11.13
2023-05-11T13:33:11.038Z,11.52
2023-05-11T13:35:41.806Z,11.50
2023-05-11T13:38:12.070Z,11.48
2023-05-11T13:40:39.515Z,11.39
2023-05-11T13:43:06.680Z,11.66
2023-05-11T13:45:33.725Z,11.47
2023-05-11T13:48:00.980Z,11.56
2023-05-11T13:50:27.917Z,11.77
2023-05-11T13:52:54.865Z,11.67
2023-05-11T13:55:21.857Z,11.64
2023-05-11T13:57:49.050Z,11.70
2023-05-11T14:00:16.816Z,11.69
2023-05-11T14:02:44.304Z,11.77
2023-05-11T14:05:11.532Z,12.12
2023-05-11T14:07:46.777Z,12.06
2023-05-11T14:10:15.994Z,12.17
2023-05-11T14:12:43.020Z,12.19
2023-05-11T14:15:10.508Z,12.32
2023-05-11T14:17:37.654Z,12.15
2023-05-11T14:20:08.196Z,12.34
2023-05-11T14:22:35.116Z,12.21
2023-05-11T14:25:02.093Z,12.29
2023-05-11T14:27:28.920Z,12.38
2023-05-11T14:29:55.944Z,12.21
2023-05-11T14:32:23.005Z,11.77
2023-05-11T14:34:50.064Z,11.66
2023-05-11T14:37:17.016Z,11.86
2023-05-11T14:39:44.094Z,12.12
2023-05-11T14:42:10.877Z,11.83
2023-05-11T14:44:38.076Z,11.79
2023-05-11T14:47:05.633Z,11.75
2023-05-11T14:49:32.539Z,11.79
2023-05-11T14:51:59.778Z,11.98
2023-05-11T14:54:26.772Z,12.02
2023-05-11T14:56:55.827Z,12.21
2023-05-11T14:59:26.452Z,12.40
2023-05-11T15:01:53.466Z,12.65
2023-05-11T15:04:20.811Z,12.62
2023-05-11T15:06:48.138Z,12.63
2023-05-11T15:09:15.041Z,12.56
2023-05-11T15:11:41.875Z,12.39
2023-05-11T15:14:08.702Z,12.23
2023-05-11T15:16:35.536Z,12.37
2023-05-11T15:19:02.546Z,12.54
2023-05-11T15:21:29.616Z,12.58
2023-05-11T15:23:56.655Z,12.66
2023-05-11T15:26:23.518Z,12.84
2023-05-11T15:28:50.366Z,12.74
2023-05-11T15:31:17.977Z,12.78
2023-05-11T15:33:45.182Z,12.78
2023-05-11T15:36:13.270Z,12.68
2023-05-11T15:38:40.992Z,13.09
2023-05-11T15:41:08.002Z,13.06
2023-05-11T15:43:34.973Z,12.78
2023-05-11T15:46:04.107Z,12.75
2023-05-11T15:48:31.517Z,12.80
2023-05-11T15:51:01.483Z,12.72
2023-05-11T15:53:28.944Z,12.65
2023-05-11T15:55:56.910Z,12.77
2023-05-11T15:58:23.788Z,12.79
2023-05-11T16:00:51.503Z,12.95
2023-05-11T16:03:20.065Z,12.96
2023-05-11T16:05:47.236Z,13.06
2023-05-11T16:08:14.754Z,13.19
2023-05-11T16:10:41.652Z,13.12
2023-05-11T16:13:09.197Z,13.18
2023-05-11T16:15:36.077Z,13.44
2023-05-11T16:18:04.844Z,13.42
2023-05-11T16:20:32.333Z,13.39
2023-05-11T16:22:59.470Z,13.43
2023-05-11T16:25:26.747Z,13.43
2023-05-11T16:27:53.525Z,13.42
2023-05-11T16:30:24.901Z,13.45
2023-05-11T16:32:53.250Z,13.62
2023-05-11T16:35:20.638Z,13.70
2023-05-11T16:37:48.113Z,13.89
2023-05-11T16:40:19.214Z,14.07
2023-05-11T16:42:47.581Z,14.07
2023-05-11T16:45:15.331Z,14.03
2023-05-11T16:47:45.300Z,14.03
2023-05-11T16:50:16.590Z,14.24
2023-05-11T16:52:43.837Z,14.31
2023-05-11T16:55:11.155Z,14.38
2023-05-11T16:57:38.034Z,14.30
2023-05-11T17:00:06.987Z,14.27
2023-05-11T17:02:34.009Z,14.33
2023-05-11T17:07:10.376Z,14.88
2023-05-11T17:09:37.192Z,14.61
2023-05-11T17:12:07.284Z,14.53
2023-05-11T17:14:34.100Z,14.69
2023-05-11T17:25:03.427Z,15.43
2023-05-11T17:27:31.319Z,15.94
2023-05-11T17:29:58.184Z,16.27
2023-05-11T17:32:25.441Z,16.66
2023-05-11T17:34:52.639Z,17.39
2023-05-11T17:37:30.508Z,17.97
2023-05-11T17:39:58.467Z,18.03
2023-05-11T17:42:26.229Z,17.69
2023-05-11T17:44:53.111Z,17.36
2023-05-11T17:47:20.006Z,17.21
2023-05-11T17:49:46.904Z,17.38
2023-05-11T17:52:15.496Z,18.15
2023-05-11T17:54:42.452Z,18.33
2023-05-11T17:57:10.058Z,18.35
2023-05-11T17:59:37.004Z,18.54
2023-05-11T18:02:04.468Z,18.99
2023-05-11T18:04:31.350Z,18.95
2023-05-11T18:13:39.190Z,20.14
2023-05-11T18:16:06.636Z,19.59
2023-05-11T18:18:34.070Z,19.75
2023-05-11T18:21:05.528Z,19.99
2023-05-11T18:23:32.516Z,20.35
2023-05-11T18:25:59.409Z,20.98
2023-05-11T18:28:26.276Z,21.48
2023-05-11T18:33:57.921Z,22.63
2023-05-11T18:36:25.032Z,22.15
2023-05-11T18:38:52.034Z,22.48
2023-05-11T18:41:19.065Z,22.52
2023-05-11T18:43:47.870Z,22.79
2023-05-11T18:46:14.935Z,22.91
2023-05-11T18:48:41.752Z,22.96
2023-05-11T18:51:09.024Z,22.63
2023-05-11T18:53:35.928Z,22.58
2023-05-11T18:56:02.986Z,22.68
2023-05-11T18:58:30.163Z,23.00
2023-05-11T19:00:57.225Z,22.94
2023-05-11T19:03:24.587Z,22.64
2023-05-11T19:05:51.853Z,22.54
2023-05-11T19:08:18.997Z,22.71
2023-05-11T19:10:47.485Z,22.94
2023-05-11T19:13:15.104Z,23.59
2023-05-11T19:15:42.114Z,24.23
2023-05-11T19:18:09.238Z,24.82
2023-05-11T19:20:39.006Z,25.23
2023-05-11T19:23:06.126Z,25.39
2023-05-11T19:25:33.175Z,25.60
2023-05-11T19:28:00.454Z,25.54
2023-05-11T19:30:27.276Z,25.54
2023-05-11T19:32:53.992Z,25.82
2023-05-11T19:35:21.069Z,25.91
2023-05-11T19:37:49.962Z,26.16
2023-05-11T19:42:47.817Z,26.24
2023-05-11T19:45:15.043Z,25.74
2023-05-11T19:47:41.994Z,25.54
2023-05-11T19:50:10.468Z,25.14
2023-05-11T19:52:38.414Z,24.84
2023-05-11T19:55:06.012Z,24.55
2023-05-11T19:57:36.594Z,24.65
2023-05-11T20:00:07.332Z,25.03
2023-05-11T20:02:35.291Z,25.01
2023-05-11T20:05:03.694Z,24.69
2023-05-11T20:07:31.548Z,24.81
2023-05-11T20:09:58.370Z,24.64
2023-05-11T20:12:25.296Z,24.43
2023-05-11T20:14:52.382Z,24.48
2023-05-11T20:17:19.065Z,24.46
2023-05-11T20:19:45.869Z,24.74
2023-05-11T20:22:12.848Z,24.92
2023-05-11T20:24:39.762Z,25.13
2023-05-11T20:27:08.989Z,25.08
2023-05-11T20:29:35.884Z,25.20
2023-05-11T20:32:02.847Z,25.35
2023-05-11T20:34:29.785Z,25.36
2023-05-11T20:36:56.742Z,25.46
2023-05-11T20:39:23.534Z,25.44
2023-05-11T20:41:50.263Z,25.53
2023-05-11T20:44:17.048Z,25.75
2023-05-11T20:54:54.779Z,26.55
2023-05-11T20:57:21.773Z,26.78
2023-05-11T21:02:19.938Z,26.77
2023-05-11T21:04:47.126Z,26.47
2023-05-11T21:10:32.261Z,27.29
2023-05-11T21:13:00.803Z,26.56
2023-05-11T21:15:27.635Z,26.56
2023-05-11T21:17:54.330Z,26.67
2023-05-11T21:20:21.521Z,26.63
2023-05-11T21:22:48.235Z,26.55
2023-05-11T21:25:14.946Z,26.52
2023-05-11T21:27:42.123Z,26.67
2023-05-11T21:30:09.439Z,26.88
2023-05-11T21:32:37.067Z,26.67
2023-05-11T21:35:04.555Z,26.61
2023-05-11T21:37:33.247Z,26.54
2023-05-11T21:40:00.042Z,26.57
2023-05-11T21:42:26.798Z,26.63
2023-05-11T21:44:53.448Z,26.73
2023-05-11T21:47:20.278Z,26.85
2023-05-11T21:49:48.194Z,26.78
2023-05-11T21:52:16.920Z,26.91
2023-05-11T21:54:43.689Z,26.88
2023-05-11T21:57:10.412Z,26.96
2023-05-11T21:59:37.041Z,27.03
2023-05-11T22:02:03.979Z,27.14
2023-05-11T22:04:30.834Z,27.25
2023-05-11T22:07:01.621Z,27.27
2023-05-11T22:09:29.463Z,27.47
2023-05-11T22:11:56.868Z,27.53
2023-05-11T22:14:23.547Z,27.54
2023-05-11T22:16:50.302Z,27.64
2023-05-11T22:19:17.283Z,27.65
2023-05-11T22:21:44.022Z,27.58
2023-05-11T22:24:10.965Z,27.71
2023-05-11T22:26:37.638Z,27.99
2023-05-11T22:29:04.936Z,28.35
2023-05-11T22:31:31.687Z,28.33
2023-05-11T22:33:58.671Z,28.09
2023-05-11T22:36:25.241Z,27.86
2023-05-11T22:46:33.598Z,27.84
2023-05-11T22:49:00.543Z,27.85
2023-05-11T22:51:27.530Z,28.03
2023-05-11T22:53:55.012Z,27.95
2023-05-11T22:56:22.373Z,27.89
2023-05-11T22:58:49.134Z,28.14
2023-05-11T23:01:15.976Z,28.46
2023-05-11T23:03:42.932Z,29.13
2023-05-11T23:06:09.847Z,29.63
2023-05-11T23:08:36.748Z,29.72
2023-05-11T23:11:04.482Z,29.46
2023-05-11T23:13:31.269Z,29.43
2023-05-11T23:15:58.102Z,29.80
2023-05-11T23:18:25.034Z,30.30
2023-05-11T23:20:56.830Z,30.27
2023-05-11T23:23:24.486Z,29.62
2023-05-11T23:25:52.152Z,29.04
2023-05-11T23:28:19.568Z,28.69
2023-05-11T23:30:46.672Z,28.55
2023-05-11T23:33:14.533Z,28.52
2023-05-11T23:35:41.602Z,28.51
2023-05-11T23:38:08.477Z,28.32
2023-05-11T23:40:35.731Z,28.18
2023-05-11T23:43:02.527Z,28.17
2023-05-11T23:45:29.324Z,28.33
2023-05-11T23:47:56.452Z,28.40
2023-05-11T23:50:23.564Z,28.14
2023-05-11T23:52:50.365Z,27.94
2023-05-11T23:55:17.278Z,27.85
2023-05-11T23:57:44.994Z,27.97
